Time;durP1;ratioP1;P1;durP2;ratioP2;P2;SDS_P1;SDS_P2;PMS_P1;PMS_P2;Temp;Humidity;BMP_temperature;BMP_pressure;BME280_temperature;BME280_humidity;BME280_pressure;Samples;Min_cycle;Max_cycle;Signal;HPM_P1;HPM_P2
2022/02/26 00:00:46;;;;;;;4.78;2.63;;;;;;;;;;5093938;28;20122;-65
2022/02/26 00:03:12;;;;;;;2.97;2.42;;;;;;;;;;5093658;28;20078;-66
2022/02/26 00:05:41;;;;;;;5.63;3.70;;;;;;;;;;5093687;28;20354;-66
2022/02/26 00:08:07;;;;;;;6.28;3.33;;;;;;;;;;5093544;28;20544;-66
2022/02/26 00:10:33;;;;;;;5.70;3.42;;;;;;;;;;5093507;28;20030;-66
2022/02/26 00:13:00;;;;;;;8.80;2.88;;;;;;;;;;5093452;28;20020;-66
2022/02/26 00:15:26;;;;;;;6.50;3.40;;;;;;;;;;5092895;28;20067;-66
2022/02/26 00:17:52;;;;;;;8.23;3.13;;;;;;;;;;5075311;28;20396;-66
2022/02/26 00:20:18;;;;;;;5.60;2.67;;;;;;;;;;5075280;28;20028;-66
2022/02/26 00:22:44;;;;;;;4.65;2.88;;;;;;;;;;5093075;28;20430;-66
2022/02/26 00:25:11;;;;;;;7.53;3.72;;;;;;;;;;5093452;28;20111;-67
2022/02/26 00:27:37;;;;;;;4.20;2.63;;;;;;;;;;5093145;28;20020;-67
2022/02/26 00:30:04;;;;;;;4.35;2.80;;;;;;;;;;5093575;28;20438;-66
2022/02/26 00:32:31;;;;;;;8.02;2.90;;;;;;;;;;5093247;28;20028;-65
2022/02/26 00:34:57;;;;;;;3.78;2.80;;;;;;;;;;5093135;28;20240;-66
2022/02/26 00:37:23;;;;;;;3.22;2.22;;;;;;;;;;5093203;28;20020;-65
2022/02/26 00:39:49;;;;;;;3.05;2.40;;;;;;;;;;5093160;28;20077;-66
2022/02/26 00:42:15;;;;;;;3.60;2.58;;;;;;;;;;5093139;28;20028;-65
2022/02/26 00:47:45;;;;;;;2.33;2.10;;;;;;;;;;5093136;28;20438;-65
2022/02/26 00:50:11;;;;;;;4.88;2.80;;;;;;;;;;5093131;28;20107;-65
2022/02/26 00:52:38;;;;;;;4.95;2.60;;;;;;;;;;5093082;28;20139;-65
2022/02/26 00:55:05;;;;;;;3.75;2.60;;;;;;;;;;5092956;28;20111;-64
2022/02/26 00:57:32;;;;;;;6.80;2.90;;;;;;;;;;5092746;28;20024;-65
2022/02/26 00:59:58;;;;;;;7.32;3.42;;;;;;;;;;5093017;28;20036;-65
2022/02/26 01:02:24;;;;;;;6.15;3.17;;;;;;;;;;5094778;28;20077;-65
2022/02/26 01:04:50;;;;;;;7.05;3.50;;;;;;;;;;5097321;28;20028;-65
2022/02/26 01:07:17;;;;;;;6.18;3.53;;;;;;;;;;5078839;28;20038;-64
2022/02/26 01:09:43;;;;;;;5.05;3.08;;;;;;;;;;5097008;28;20025;-64
2022/02/26 01:12:10;;;;;;;6.50;3.38;;;;;;;;;;5078727;28;20034;-64
2022/02/26 01:14:36;;;;;;;5.82;2.83;;;;;;;;;;5096543;28;20058;-64
2022/02/26 01:17:04;;;;;;;3.25;2.95;;;;;;;;;;5096481;28;20032;-65
2022/02/26 01:19:30;;;;;;;4.88;3.10;;;;;;;;;;5096846;28;20106;-65
2022/02/26 01:21:57;;;;;;;7.13;3.10;;;;;;;;;;5096767;28;20085;-65
2022/02/26 01:24:23;;;;;;;3.67;2.67;;;;;;;;;;5096728;28;20032;-65
2022/02/26 01:26:50;;;;;;;4.60;2.42;;;;;;;;;;5078184;28;20032;-65
2022/02/26 01:29:16;;;;;;;4.70;2.63;;;;;;;;;;5096618;28;20392;-65
2022/02/26 01:31:43;;;;;;;5.93;3.10;;;;;;;;;;5096561;28;20113;-65
2022/02/26 01:34:10;;;;;;;8.15;3.63;;;;;;;;;;5096479;28;20036;-65
2022/02/26 01:36:36;;;;;;;5.82;3.00;;;;;;;;;;5096483;28;20031;-65
2022/02/26 01:39:04;;;;;;;5.00;3.35;;;;;;;;;;5096149;28;20386;-65
2022/02/26 01:41:31;;;;;;;4.70;3.30;;;;;;;;;;5096404;28;20157;-65
2022/02/26 01:43:57;;;;;;;5.45;3.22;;;;;;;;;;5096339;28;20035;-65
2022/02/26 01:46:24;;;;;;;6.05;3.72;;;;;;;;;;5096296;28;20081;-65
2022/02/26 01:48:50;;;;;;;4.35;2.90;;;;;;;;;;5096269;28;20024;-64
2022/02/26 01:51:17;;;;;;;4.97;2.60;;;;;;;;;;5096211;28;20447;-65
2022/02/26 01:53:43;;;;;;;5.40;2.50;;;;;;;;;;5095845;28;20398;-65
2022/02/26 01:56:12;;;;;;;6.30;3.03;;;;;;;;;;5096216;28;20035;-65
2022/02/26 01:58:39;;;;;;;3.53;2.63;;;;;;;;;;5096077;28;20032;-68
2022/02/26 02:01:06;;;;;;;7.35;2.97;;;;;;;;;;5077827;28;20365;-69
2022/02/26 02:03:32;;;;;;;4.88;2.63;;;;;;;;;;5095974;28;20077;-69
2022/02/26 02:05:59;;;;;;;3.67;2.45;;;;;;;;;;5096002;28;20111;-67
2022/02/26 02:08:26;;;;;;;5.38;2.80;;;;;;;;;;5095924;28;20232;-67
2022/02/26 02:10:52;;;;;;;7.38;2.78;;;;;;;;;;5095840;28;20027;-67
2022/02/26 02:13:19;;;;;;;9.15;3.35;;;;;;;;;;5095719;28;20032;-68
2022/02/26 02:15:45;;;;;;;3.97;2.67;;;;;;;;;;5095216;28;20408;-67
2022/02/26 02:18:13;;;;;;;6.05;2.97;;;;;;;;;;5095961;28;20047;-67
2022/02/26 02:20:39;;;;;;;5.30;2.72;;;;;;;;;;5095668;28;20020;-67
2022/02/26 02:23:06;;;;;;;6.07;2.53;;;;;;;;;;5095615;28;20028;-67
2022/02/26 02:25:33;;;;;;;3.65;2.50;;;;;;;;;;5095546;28;20036;-67
2022/02/26 02:28:00;;;;;;;3.97;2.22;;;;;;;;;;5095607;28;20132;-68
2022/02/26 02:30:28;;;;;;;6.32;2.53;;;;;;;;;;5095682;28;20429;-66
2022/02/26 02:32:54;;;;;;;5.07;3.08;;;;;;;;;;5095179;28;20434;-68
2022/02/26 02:35:27;;;;;;;5.65;2.90;;;;;;;;;;5095535;28;20040;-67
2022/02/26 02:37:57;;;;;;;3.80;2.80;;;;;;;;;;5095411;28;20028;-68
2022/02/26 02:40:24;;;;;;;6.82;2.50;;;;;;;;;;5095265;28;20031;-67
2022/02/26 02:42:51;;;;;;;4.43;2.03;;;;;;;;;;5095244;28;20024;-68
2022/02/26 02:45:18;;;;;;;4.43;2.55;;;;;;;;;;5095186;28;20031;-67
2022/02/26 02:47:45;;;;;;;5.00;2.40;;;;;;;;;;5077026;28;20126;-67
2022/02/26 02:50:11;;;;;;;4.75;2.70;;;;;;;;;;5095142;28;20030;-67
2022/02/26 02:52:37;;;;;;;3.58;2.25;;;;;;;;;;5095030;28;20036;-67
2022/02/26 02:55:04;;;;;;;6.03;2.35;;;;;;;;;;5094861;28;20052;-67
2022/02/26 02:57:30;;;;;;;4.80;2.42;;;;;;;;;;5095028;28;20020;-67
2022/02/26 02:59:56;;;;;;;6.32;2.67;;;;;;;;;;5076619;28;20024;-67
2022/02/26 03:02:22;;;;;;;7.18;3.22;;;;;;;;;;5076697;28;20020;-67
2022/02/26 03:04:48;;;;;;;8.00;3.60;;;;;;;;;;5094810;28;20109;-67
2022/02/26 03:07:16;;;;;;;7.13;3.78;;;;;;;;;;5076967;28;20380;-67
2022/02/26 03:09:42;;;;;;;8.90;3.70;;;;;;;;;;5076517;28;20556;-68
2022/02/26 03:12:09;;;;;;;8.65;4.05;;;;;;;;;;5076452;28;20051;-67
2022/02/26 03:14:35;;;;;;;7.75;3.00;;;;;;;;;;5094474;28;20091;-68
2022/02/26 03:17:03;;;;;;;7.80;3.67;;;;;;;;;;5094475;28;20043;-67
2022/02/26 03:19:29;;;;;;;3.97;2.70;;;;;;;;;;5076281;28;20028;-67
2022/02/26 03:21:55;;;;;;;6.32;3.08;;;;;;;;;;5076305;28;20538;-68
2022/02/26 03:24:21;;;;;;;11.77;3.05;;;;;;;;;;5093827;28;20081;-67
2022/02/26 03:26:55;;;;;;;8.48;3.05;;;;;;;;;;5094395;28;20161;-68
2022/02/26 03:29:22;;;;;;;6.40;2.78;;;;;;;;;;5094374;28;20028;-66
2022/02/26 03:31:48;;;;;;;4.57;2.60;;;;;;;;;;5094512;28;20058;-65
2022/02/26 03:34:15;;;;;;;4.93;3.13;;;;;;;;;;5094257;28;20075;-64
2022/02/26 03:36:41;;;;;;;5.97;3.25;;;;;;;;;;5094482;28;20039;-64
2022/02/26 03:39:07;;;;;;;9.32;4.05;;;;;;;;;;5075931;28;20024;-65
2022/02/26 03:41:33;;;;;;;6.03;3.10;;;;;;;;;;5094076;28;20088;-65
2022/02/26 03:43:59;;;;;;;4.15;2.67;;;;;;;;;;5094056;28;20073;-65
2022/02/26 03:46:26;;;;;;;6.47;3.70;;;;;;;;;;5093967;28;20036;-65
2022/02/26 03:48:52;;;;;;;7.55;3.90;;;;;;;;;;5094247;28;20107;-65
2022/02/26 03:51:18;;;;;;;7.25;3.45;;;;;;;;;;5094177;28;20047;-65
2022/02/26 03:53:44;;;;;;;5.65;3.42;;;;;;;;;;5075643;28;20107;-65
2022/02/26 03:56:10;;;;;;;8.95;4.93;;;;;;;;;;5093717;28;20042;-65
2022/02/26 03:58:36;;;;;;;8.30;3.67;;;;;;;;;;5094140;28;20028;-65
2022/02/26 04:01:02;;;;;;;3.50;2.70;;;;;;;;;;5094012;28;20108;-65
2022/02/26 04:03:29;;;;;;;4.75;2.78;;;;;;;;;;5093434;28;20380;-66
2022/02/26 04:05:55;;;;;;;6.28;2.65;;;;;;;;;;5093367;28;20032;-67
2022/02/26 04:08:21;;;;;;;5.95;2.97;;;;;;;;;;5093676;28;20081;-68
2022/02/26 04:10:47;;;;;;;5.25;3.30;;;;;;;;;;5075406;28;20372;-69
2022/02/26 04:13:13;;;;;;;7.18;2.72;;;;;;;;;;5093577;28;20111;-67
2022/02/26 04:15:39;;;;;;;8.68;3.65;;;;;;;;;;5093371;28;20044;-69
2022/02/26 04:18:06;;;;;;;7.93;3.75;;;;;;;;;;5093462;28;20110;-69
2022/02/26 04:20:32;;;;;;;8.23;3.47;;;;;;;;;;5093442;28;20028;-67
2022/02/26 04:22:58;;;;;;;7.18;3.30;;;;;;;;;;5093393;28;20024;-67
2022/02/26 04:25:24;;;;;;;5.68;4.05;;;;;;;;;;5093299;28;20480;-67
2022/02/26 04:27:51;;;;;;;6.20;4.43;;;;;;;;;;5093125;28;20028;-68
2022/02/26 04:30:17;;;;;;;13.98;4.82;;;;;;;;;;5093328;28;20053;-67
2022/02/26 04:32:43;;;;;;;10.82;5.20;;;;;;;;;;5093299;28;20028;-68
2022/02/26 04:35:10;;;;;;;9.80;5.30;;;;;;;;;;5093212;28;20062;-67
2022/02/26 04:37:36;;;;;;;7.70;4.45;;;;;;;;;;5074231;28;20457;-69
2022/02/26 04:40:03;;;;;;;5.68;3.83;;;;;;;;;;5075063;28;20024;-70
2022/02/26 04:42:29;;;;;;;6.15;4.15;;;;;;;;;;5074964;28;20031;-69
2022/02/26 04:44:55;;;;;;;11.27;5.05;;;;;;;;;;5092857;28;20374;-70
2022/02/26 04:47:21;;;;;;;9.32;4.90;;;;;;;;;;5092988;28;20077;-68
2022/02/26 04:49:48;;;;;;;11.48;5.85;;;;;;;;;;5093108;28;20110;-67
2022/02/26 04:52:14;;;;;;;9.10;5.30;;;;;;;;;;5092857;28;20032;-66
2022/02/26 04:54:40;;;;;;;13.68;5.97;;;;;;;;;;5074911;28;20480;-69
2022/02/26 04:57:06;;;;;;;6.75;4.35;;;;;;;;;;5092987;28;20040;-66
2022/02/26 04:59:32;;;;;;;10.02;5.07;;;;;;;;;;5092945;28;20031;-67
2022/02/26 05:01:59;;;;;;;3.70;2.17;;;;;;;;;;5101057;28;20145;-67
2022/02/26 05:04:25;;;;;;;4.95;2.95;;;;;;;;;;5102360;28;20476;-69
2022/02/26 05:06:51;;;;;;;16.50;5.20;;;;;;;;;;5102643;28;20031;-69
2022/02/26 05:09:17;;;;;;;5.65;2.38;;;;;;;;;;5101562;28;20111;-67
2022/02/26 05:11:43;;;;;;;5.05;2.70;;;;;;;;;;5100358;28;20086;-67
2022/02/26 05:14:11;;;;;;;6.40;2.60;;;;;;;;;;5082856;28;20068;-68
2022/02/26 05:16:38;;;;;;;7.35;3.97;;;;;;;;;;5102887;28;20473;-67
2022/02/26 05:19:04;;;;;;;3.83;2.47;;;;;;;;;;5101100;28;20020;-66
2022/02/26 05:21:30;;;;;;;4.45;2.00;;;;;;;;;;5083083;28;20028;-67
2022/02/26 05:23:56;;;;;;;4.82;2.15;;;;;;;;;;5102563;28;20754;-69
2022/02/26 05:26:22;;;;;;;3.78;2.75;;;;;;;;;;5082270;28;20073;-67
2022/02/26 05:28:49;;;;;;;6.50;3.65;;;;;;;;;;5101286;28;20391;-68
2022/02/26 05:31:15;;;;;;;5.85;3.20;;;;;;;;;;5102394;28;20023;-67
2022/02/26 05:33:41;;;;;;;6.75;3.70;;;;;;;;;;5081979;28;20380;-68
2022/02/26 05:36:07;;;;;;;7.38;3.85;;;;;;;;;;5083290;28;20031;-67
2022/02/26 05:38:33;;;;;;;5.05;3.70;;;;;;;;;;5094909;28;20084;-68
2022/02/26 05:41:00;;;;;;;6.32;3.80;;;;;;;;;;5073700;28;20036;-67
2022/02/26 05:43:26;;;;;;;10.80;4.82;;;;;;;;;;5092017;28;20034;-66
2022/02/26 05:45:52;;;;;;;9.63;5.13;;;;;;;;;;5092578;28;20115;-67
2022/02/26 05:48:18;;;;;;;10.80;5.53;;;;;;;;;;5094066;28;20028;-70
2022/02/26 05:50:44;;;;;;;23.45;13.30;;;;;;;;;;5096293;28;20027;-71
2022/02/26 05:53:10;;;;;;;23.83;13.85;;;;;;;;;;5096268;28;20028;-67
2022/02/26 05:55:37;;;;;;;22.30;12.43;;;;;;;;;;5077869;28;20085;-68
2022/02/26 05:58:03;;;;;;;16.52;8.98;;;;;;;;;;5096165;28;20028;-67
2022/02/26 06:00:29;;;;;;;15.20;9.00;;;;;;;;;;5077846;28;20030;-66
2022/02/26 06:02:55;;;;;;;13.15;8.15;;;;;;;;;;5096005;28;20028;-68
2022/02/26 06:05:22;;;;;;;15.48;7.18;;;;;;;;;;5095998;28;20032;-69
2022/02/26 06:07:48;;;;;;;11.75;7.05;;;;;;;;;;5095924;28;20020;-70
2022/02/26 06:10:14;;;;;;;15.30;7.47;;;;;;;;;;5095864;28;20047;-68
2022/02/26 06:12:40;;;;;;;18.13;9.43;;;;;;;;;;5095796;28;20110;-68
2022/02/26 06:15:06;;;;;;;18.73;13.25;;;;;;;;;;5077120;28;20116;-68
2022/02/26 06:17:33;;;;;;;21.48;11.35;;;;;;;;;;5095675;28;20044;-68
2022/02/26 06:19:59;;;;;;;26.80;14.38;;;;;;;;;;5095730;28;20028;-65
2022/02/26 06:22:25;;;;;;;32.75;13.85;;;;;;;;;;5095390;28;20123;-65
2022/02/26 06:24:51;;;;;;;25.80;11.95;;;;;;;;;;5095596;28;20035;-64
2022/02/26 06:27:17;;;;;;;22.08;11.38;;;;;;;;;;5095610;28;20053;-67
2022/02/26 06:29:44;;;;;;;25.98;12.40;;;;;;;;;;5095257;28;20104;-65
2022/02/26 06:32:10;;;;;;;26.65;11.25;;;;;;;;;;5095739;28;20052;-67
2022/02/26 06:34:36;;;;;;;22.15;10.52;;;;;;;;;;5095405;28;20111;-65
2022/02/26 06:37:03;;;;;;;24.15;9.98;;;;;;;;;;5095240;28;20028;-65
2022/02/26 06:39:29;;;;;;;24.52;12.30;;;;;;;;;;5095436;28;20020;-66
2022/02/26 06:41:55;;;;;;;24.88;12.00;;;;;;;;;;5095245;28;20024;-64
2022/02/26 06:44:21;;;;;;;26.13;14.13;;;;;;;;;;5095244;28;20020;-64
2022/02/26 06:46:47;;;;;;;28.52;13.93;;;;;;;;;;5094886;28;20115;-65
2022/02/26 06:49:14;;;;;;;20.58;10.50;;;;;;;;;;5095114;28;20031;-65
2022/02/26 06:51:41;;;;;;;21.25;10.65;;;;;;;;;;5095051;28;20028;-64
2022/02/26 06:54:07;;;;;;;19.20;10.55;;;;;;;;;;5094789;28;20059;-67
2022/02/26 06:56:33;;;;;;;19.33;8.85;;;;;;;;;;5076680;28;20112;-67
2022/02/26 06:59:00;;;;;;;15.00;8.60;;;;;;;;;;5094471;28;20529;-67
2022/02/26 07:01:26;;;;;;;16.60;8.88;;;;;;;;;;5094371;28;20548;-68
2022/02/26 07:03:53;;;;;;;17.92;8.40;;;;;;;;;;5094437;28;20548;-68
2022/02/26 07:06:19;;;;;;;16.02;7.88;;;;;;;;;;5076588;28;20097;-68
2022/02/26 07:08:46;;;;;;;19.98;10.05;;;;;;;;;;5094512;28;20637;-69
2022/02/26 07:11:13;;;;;;;19.38;9.80;;;;;;;;;;5076510;28;20035;-68
2022/02/26 07:13:39;;;;;;;22.88;11.05;;;;;;;;;;5076289;28;20051;-69
2022/02/26 07:16:06;;;;;;;17.95;10.35;;;;;;;;;;5094856;28;20032;-66
2022/02/26 07:18:32;;;;;;;15.80;9.38;;;;;;;;;;5095000;28;20032;-67
2022/02/26 07:20:58;;;;;;;17.52;8.15;;;;;;;;;;5076637;28;20505;-65
2022/02/26 07:23:24;;;;;;;21.15;10.63;;;;;;;;;;5094574;28;20020;-65
2022/02/26 07:25:50;;;;;;;24.27;9.57;;;;;;;;;;5076248;28;20028;-67
2022/02/26 07:28:17;;;;;;;17.10;8.38;;;;;;;;;;5094166;28;20028;-65
2022/02/26 07:30:43;;;;;;;18.17;9.05;;;;;;;;;;5094956;28;20499;-65
2022/02/26 07:33:10;;;;;;;19.77;9.70;;;;;;;;;;5076353;28;20213;-65
2022/02/26 07:35:37;;;;;;;13.65;7.32;;;;;;;;;;5076347;28;20047;-65
2022/02/26 07:38:03;;;;;;;17.33;7.90;;;;;;;;;;5094478;28;20575;-65
2022/02/26 07:40:30;;;;;;;13.77;6.55;;;;;;;;;;5076385;28;20069;-67
2022/02/26 07:42:56;;;;;;;15.65;7.43;;;;;;;;;;5076029;28;20028;-64
2022/02/26 07:45:22;;;;;;;14.77;7.63;;;;;;;;;;5094183;28;20077;-65
2022/02/26 07:47:49;;;;;;;18.33;9.05;;;;;;;;;;5094275;28;20024;-65
2022/02/26 07:50:15;;;;;;;22.63;11.55;;;;;;;;;;5094573;28;20032;-66
2022/02/26 07:52:41;;;;;;;29.40;15.05;;;;;;;;;;5094784;28;20039;-67
2022/02/26 07:55:08;;;;;;;21.77;10.20;;;;;;;;;;5093975;28;20024;-67
2022/02/26 07:57:34;;;;;;;29.63;14.32;;;;;;;;;;5075585;28;20131;-66
2022/02/26 08:00:00;;;;;;;19.00;9.27;;;;;;;;;;5093763;28;20036;-67
2022/02/26 08:02:27;;;;;;;11.40;6.45;;;;;;;;;;5093415;28;20376;-65
2022/02/26 08:04:53;;;;;;;7.60;5.05;;;;;;;;;;5093982;28;20111;-67
2022/02/26 08:07:19;;;;;;;7.28;5.13;;;;;;;;;;5075438;28;20597;-65
2022/02/26 08:09:45;;;;;;;8.88;5.47;;;;;;;;;;5075271;28;20038;-67
2022/02/26 08:12:13;;;;;;;9.73;5.32;;;;;;;;;;5093440;28;20020;-67
2022/02/26 08:14:39;;;;;;;7.50;4.80;;;;;;;;;;5093448;28;20084;-67
2022/02/26 08:17:05;;;;;;;10.45;5.05;;;;;;;;;;5075255;28;20081;-65
2022/02/26 08:19:32;;;;;;;8.13;5.03;;;;;;;;;;5093493;28;20020;-67
2022/02/26 08:21:58;;;;;;;10.13;4.85;;;;;;;;;;5075248;28;20036;-67
2022/02/26 08:24:24;;;;;;;7.65;5.38;;;;;;;;;;5093323;28;20020;-67
2022/02/26 08:26:51;;;;;;;11.07;5.30;;;;;;;;;;5093326;28;20164;-67
2022/02/26 08:29:17;;;;;;;13.63;8.55;;;;;;;;;;5093384;28;20023;-67
2022/02/26 08:31:44;;;;;;;13.23;6.88;;;;;;;;;;5093308;28;20024;-66
2022/02/26 08:34:10;;;;;;;9.55;6.90;;;;;;;;;;5075129;28;20119;-66
2022/02/26 08:36:36;;;;;;;11.75;5.90;;;;;;;;;;5074993;28;20072;-70
2022/02/26 08:39:03;;;;;;;9.77;5.80;;;;;;;;;;5093428;28;20124;-69
2022/02/26 08:41:30;;;;;;;8.77;5.03;;;;;;;;;;5090869;28;20020;-72
2022/02/26 08:43:56;;;;;;;10.77;6.15;;;;;;;;;;5092421;28;20477;-75
2022/02/26 08:46:23;;;;;;;7.60;5.32;;;;;;;;;;5093212;28;20032;-74
2022/02/26 08:48:51;;;;;;;8.85;4.72;;;;;;;;;;5092882;28;20024;-72
2022/02/26 08:51:17;;;;;;;9.32;5.13;;;;;;;;;;5082927;28;20030;-69
2022/02/26 08:53:43;;;;;;;10.68;6.65;;;;;;;;;;5102041;28;20547;-73
2022/02/26 08:56:09;;;;;;;9.57;6.25;;;;;;;;;;5097666;28;20032;-70
2022/02/26 08:58:35;;;;;;;10.25;6.03;;;;;;;;;;5074707;28;20457;-72
2022/02/26 09:01:02;;;;;;;10.68;7.28;;;;;;;;;;5092575;28;20028;-70
2022/02/26 09:03:28;;;;;;;12.32;5.78;;;;;;;;;;5092474;28;20065;-70
2022/02/26 09:05:54;;;;;;;10.68;7.55;;;;;;;;;;5074758;28;20036;-68
2022/02/26 09:08:20;;;;;;;9.00;7.13;;;;;;;;;;5074532;28;20038;-68
2022/02/26 09:10:46;;;;;;;10.30;6.50;;;;;;;;;;5074577;28;20093;-70
2022/02/26 09:13:13;;;;;;;8.63;6.32;;;;;;;;;;5092717;28;20024;-66
2022/02/26 09:15:39;;;;;;;10.55;7.47;;;;;;;;;;5092657;28;20044;-68
2022/02/26 09:18:05;;;;;;;10.63;7.70;;;;;;;;;;5092777;28;20028;-68
2022/02/26 09:20:31;;;;;;;11.40;7.00;;;;;;;;;;5074399;28;20028;-69
2022/02/26 09:22:58;;;;;;;15.85;7.97;;;;;;;;;;5094075;28;20169;-68
2022/02/26 09:25:25;;;;;;;13.52;8.10;;;;;;;;;;5078718;28;20052;-69
2022/02/26 09:27:51;;;;;;;11.43;7.65;;;;;;;;;;5096677;28;20032;-68
2022/02/26 09:30:17;;;;;;;10.38;7.35;;;;;;;;;;5096656;28;20058;-69
2022/02/26 09:32:44;;;;;;;10.93;7.07;;;;;;;;;;5096872;28;20099;-68
2022/02/26 09:35:10;;;;;;;12.25;8.13;;;;;;;;;;5096603;28;20050;-67
2022/02/26 09:37:37;;;;;;;14.50;7.40;;;;;;;;;;5096431;28;20034;-70
2022/02/26 09:40:04;;;;;;;57.10;25.17;;;;;;;;;;5096430;28;20070;-69
2022/02/26 09:42:30;;;;;;;39.13;21.50;;;;;;;;;;5096410;28;20020;-70
2022/02/26 09:44:57;;;;;;;11.40;7.65;;;;;;;;;;5096026;28;20816;-68
2022/02/26 09:47:24;;;;;;;10.93;6.97;;;;;;;;;;5078042;28;20028;-69
2022/02/26 09:49:50;;;;;;;10.48;7.22;;;;;;;;;;5077669;28;20494;-67
2022/02/26 09:52:19;;;;;;;12.25;7.70;;;;;;;;;;5096170;28;20057;-69
2022/02/26 09:54:49;;;;;;;10.27;7.13;;;;;;;;;;5095911;28;20035;-68
2022/02/26 09:57:15;;;;;;;10.88;6.53;;;;;;;;;;5104237;28;20024;-65
2022/02/26 09:59:45;;;;;;;11.63;7.93;;;;;;;;;;5116536;28;20040;-68
2022/02/26 10:02:12;;;;;;;14.52;9.93;;;;;;;;;;5113536;28;20038;-66
2022/02/26 10:04:39;;;;;;;16.73;10.75;;;;;;;;;;5095218;28;20081;-66
2022/02/26 10:07:09;;;;;;;13.10;8.73;;;;;;;;;;5095854;28;20024;-65
2022/02/26 10:09:39;;;;;;;16.83;9.55;;;;;;;;;;5095742;28;20088;-67
2022/02/26 10:12:17;;;;;;;12.52;8.02;;;;;;;;;;5095630;28;20024;-66
2022/02/26 10:14:43;;;;;;;11.77;8.18;;;;;;;;;;5077183;28;20044;-69
2022/02/26 10:17:09;;;;;;;13.95;9.38;;;;;;;;;;5077445;28;20495;-70
2022/02/26 10:19:36;;;;;;;19.80;11.75;;;;;;;;;;5077192;28;20077;-69
2022/02/26 10:22:04;;;;;;;20.52;11.43;;;;;;;;;;5077348;28;20021;-69
2022/02/26 10:24:30;;;;;;;19.20;12.10;;;;;;;;;;5077009;28;20077;-71
2022/02/26 10:27:05;;;;;;;20.83;13.00;;;;;;;;;;5095417;28;20078;-68
2022/02/26 10:29:36;;;;;;;27.92;14.82;;;;;;;;;;5095175;28;20439;-71
2022/02/26 10:32:03;;;;;;;19.85;12.60;;;;;;;;;;5095363;28;20024;-73
2022/02/26 10:34:34;;;;;;;21.67;11.40;;;;;;;;;;5093984;28;20032;-72
2022/02/26 10:37:05;;;;;;;18.98;10.90;;;;;;;;;;5077057;28;20032;-68
2022/02/26 10:39:32;;;;;;;17.63;11.52;;;;;;;;;;5077073;28;20427;-68
2022/02/26 10:41:58;;;;;;;16.80;10.63;;;;;;;;;;5095234;28;20016;-70
2022/02/26 10:44:25;;;;;;;18.08;9.07;;;;;;;;;;5076718;28;20032;-70
2022/02/26 10:46:51;;;;;;;17.35;9.85;;;;;;;;;;5076918;28;20063;-69
2022/02/26 10:49:19;;;;;;;12.98;8.30;;;;;;;;;;5094949;28;20024;-69
2022/02/26 10:51:46;;;;;;;13.30;8.48;;;;;;;;;;5095027;28;20016;-68
2022/02/26 10:54:22;;;;;;;17.60;9.32;;;;;;;;;;5094881;28;20027;-71
2022/02/26 10:56:49;;;;;;;11.73;7.55;;;;;;;;;;5076560;28;20032;-72
2022/02/26 10:59:34;;;;;;;14.57;8.45;;;;;;;;;;5094764;28;20024;-70
2022/02/26 11:02:08;;;;;;;14.00;8.65;;;;;;;;;;5076333;28;20024;-72
2022/02/26 11:04:35;;;;;;;13.93;8.05;;;;;;;;;;5094547;28;20083;-72
2022/02/26 11:07:02;;;;;;;14.60;7.50;;;;;;;;;;5094598;28;20027;-71
2022/02/26 11:09:28;;;;;;;14.02;8.25;;;;;;;;;;5076415;28;20028;-72
2022/02/26 11:11:59;;;;;;;12.18;7.70;;;;;;;;;;5094348;28;20027;-73
2022/02/26 11:14:26;;;;;;;13.82;7.85;;;;;;;;;;5075981;28;20062;-72
2022/02/26 11:16:59;;;;;;;15.38;8.40;;;;;;;;;;5076283;28;20055;-73
2022/02/26 11:19:26;;;;;;;12.70;8.10;;;;;;;;;;5076286;28;20050;-69
2022/02/26 11:21:53;;;;;;;9.68;7.57;;;;;;;;;;5094446;28;20031;-69
2022/02/26 11:24:20;;;;;;;15.43;8.50;;;;;;;;;;5094003;28;20522;-73
2022/02/26 11:26:46;;;;;;;13.77;8.60;;;;;;;;;;5076228;28;20030;-71
2022/02/26 11:29:14;;;;;;;14.27;8.80;;;;;;;;;;5094348;28;20056;-71
2022/02/26 11:31:47;;;;;;;13.30;8.55;;;;;;;;;;5094127;28;20028;-71
2022/02/26 11:34:21;;;;;;;17.20;12.43;;;;;;;;;;5094396;28;20024;-69
2022/02/26 11:36:52;;;;;;;22.17;11.38;;;;;;;;;;5094223;28;20040;-68
2022/02/26 11:39:22;;;;;;;15.18;9.82;;;;;;;;;;5094175;28;20052;-68
2022/02/26 11:41:48;;;;;;;14.23;8.63;;;;;;;;;;5094124;28;20020;-69
2022/02/26 11:44:14;;;;;;;18.00;11.52;;;;;;;;;;5093798;28;20423;-69
2022/02/26 11:46:42;;;;;;;18.75;10.18;;;;;;;;;;5075631;28;20463;-70
2022/02/26 11:49:18;;;;;;;25.42;12.77;;;;;;;;;;5094018;28;20024;-70
2022/02/26 11:51:46;;;;;;;14.18;8.73;;;;;;;;;;5102669;28;20487;-70
2022/02/26 11:54:17;;;;;;;27.67;15.70;;;;;;;;;;5107164;28;20032;-70
2022/02/26 11:56:53;;;;;;;28.15;19.00;;;;;;;;;;5111278;28;20035;-69
2022/02/26 11:59:36;;;;;;;17.15;10.05;;;;;;;;;;5095880;28;20027;-69
2022/02/26 12:02:06;;;;;;;57.33;31.08;;;;;;;;;;5114125;28;20020;-67
2022/02/26 12:04:43;;;;;;;14.23;9.52;;;;;;;;;;5095806;28;20496;-68
2022/02/26 12:07:09;;;;;;;120.65;60.03;;;;;;;;;;5095706;28;20080;-68
2022/02/26 12:09:54;;;;;;;287.95;128.73;;;;;;;;;;5113998;28;20058;-68
2022/02/26 12:12:51;;;;;;;39.20;20.25;;;;;;;;;;5095581;28;20032;-67
2022/02/26 12:15:27;;;;;;;16.92;9.88;;;;;;;;;;5092663;28;20134;-68
2022/02/26 12:17:56;;;;;;;30.77;16.30;;;;;;;;;;5113921;28;20038;-66
2022/02/26 12:20:30;;;;;;;78.10;34.85;;;;;;;;;;5113824;28;20027;-66
2022/02/26 12:23:06;;;;;;;19.45;10.55;;;;;;;;;;5095608;28;20057;-67
2022/02/26 12:25:37;;;;;;;16.67;10.55;;;;;;;;;;5113817;28;20020;-69
2022/02/26 12:28:07;;;;;;;17.67;10.60;;;;;;;;;;5113551;28;20375;-67
2022/02/26 12:30:51;;;;;;;35.80;20.90;;;;;;;;;;5113631;28;20024;-66
2022/02/26 12:33:20;;;;;;;26.05;13.93;;;;;;;;;;5095396;28;20039;-65
2022/02/26 12:35:47;;;;;;;24.23;14.45;;;;;;;;;;5113519;28;20036;-67
2022/02/26 12:38:20;;;;;;;25.73;15.38;;;;;;;;;;5095330;28;20384;-66
2022/02/26 12:40:47;;;;;;;16.48;10.30;;;;;;;;;;5113793;28;20345;-68
2022/02/26 12:43:13;;;;;;;22.70;11.60;;;;;;;;;;5113526;28;20062;-67
2022/02/26 12:46:04;;;;;;;25.48;14.85;;;;;;;;;;5113486;28;20016;-65
2022/02/26 12:48:31;;;;;;;24.90;14.52;;;;;;;;;;5095175;28;20023;-67
2022/02/26 12:50:57;;;;;;;19.42;12.57;;;;;;;;;;5113399;28;20027;-67
2022/02/26 12:53:23;;;;;;;18.85;10.85;;;;;;;;;;5113394;28;20065;-67
2022/02/26 12:55:49;;;;;;;22.88;12.98;;;;;;;;;;5095030;28;20028;-67
2022/02/26 12:58:15;;;;;;;31.65;15.68;;;;;;;;;;5096534;28;20027;-67
2022/02/26 13:00:42;;;;;;;21.80;12.73;;;;;;;;;;5117823;28;20024;-67
2022/02/26 13:03:09;;;;;;;19.33;11.35;;;;;;;;;;5117444;28;20054;-67
2022/02/26 13:05:36;;;;;;;27.25;15.18;;;;;;;;;;5098351;28;20045;-67
2022/02/26 13:08:02;;;;;;;21.98;17.70;;;;;;;;;;5099192;28;20511;-67
2022/02/26 13:10:29;;;;;;;16.73;11.20;;;;;;;;;;5099105;28;20023;-67
2022/02/26 13:12:55;;;;;;;14.60;8.82;;;;;;;;;;5117495;28;20059;-67
2022/02/26 13:15:22;;;;;;;15.85;8.68;;;;;;;;;;5117253;28;20051;-66
2022/02/26 13:17:48;;;;;;;22.38;12.45;;;;;;;;;;5116798;28;20032;-67
2022/02/26 13:20:24;;;;;;;15.70;10.27;;;;;;;;;;5117008;28;20031;-66
2022/02/26 13:22:53;;;;;;;19.10;11.05;;;;;;;;;;5114069;28;20034;-66
2022/02/26 13:25:20;;;;;;;15.35;10.48;;;;;;;;;;5099290;28;20552;-66
2022/02/26 13:27:47;;;;;;;14.38;10.60;;;;;;;;;;5078511;28;20050;-68
2022/02/26 13:30:13;;;;;;;14.27;10.23;;;;;;;;;;5096655;28;20460;-67
2022/02/26 13:32:41;;;;;;;15.88;10.98;;;;;;;;;;5078406;28;20178;-68
2022/02/26 13:35:07;;;;;;;18.88;10.70;;;;;;;;;;5096579;28;20032;-68
2022/02/26 13:37:36;;;;;;;14.45;9.23;;;;;;;;;;5078251;28;20495;-67
2022/02/26 13:40:03;;;;;;;13.02;10.32;;;;;;;;;;5096513;28;20032;-67
2022/02/26 13:42:31;;;;;;;23.30;14.18;;;;;;;;;;5076656;28;20016;-67
2022/02/26 13:45:01;;;;;;;16.05;10.63;;;;;;;;;;5098654;28;20032;-67
2022/02/26 13:47:30;;;;;;;17.13;10.38;;;;;;;;;;5096076;28;20040;-68
2022/02/26 13:49:57;;;;;;;22.48;13.18;;;;;;;;;;5095895;28;20030;-66
2022/02/26 13:52:24;;;;;;;44.38;24.55;;;;;;;;;;5096104;28;20032;-67
2022/02/26 13:54:51;;;;;;;25.95;12.07;;;;;;;;;;5095947;28;20024;-68
2022/02/26 13:57:22;;;;;;;22.95;13.50;;;;;;;;;;5095789;28;20020;-66
2022/02/26 13:59:49;;;;;;;22.08;15.25;;;;;;;;;;5095829;28;20032;-68
2022/02/26 14:02:21;;;;;;;16.73;10.55;;;;;;;;;;5102098;28;20150;-66
2022/02/26 14:04:48;;;;;;;22.75;13.77;;;;;;;;;;5103515;28;20016;-67
2022/02/26 14:07:14;;;;;;;20.63;12.45;;;;;;;;;;5104809;28;20030;-67
2022/02/26 14:09:42;;;;;;;52.92;27.13;;;;;;;;;;5086461;28;20026;-68
2022/02/26 14:12:09;;;;;;;22.00;13.20;;;;;;;;;;5084982;28;20039;-67
2022/02/26 14:14:36;;;;;;;17.35;9.98;;;;;;;;;;5085754;28;20130;-67
2022/02/26 14:17:06;;;;;;;15.48;9.85;;;;;;;;;;5088186;28;20418;-67
2022/02/26 14:19:37;;;;;;;16.90;10.33;;;;;;;;;;5099860;28;20453;-66
2022/02/26 14:22:04;;;;;;;18.70;11.10;;;;;;;;;;5077052;28;20248;-65
2022/02/26 14:24:31;;;;;;;18.85;11.55;;;;;;;;;;5095646;28;20049;-67
2022/02/26 14:27:00;;;;;;;20.63;13.43;;;;;;;;;;5077137;28;20032;-66
2022/02/26 14:29:34;;;;;;;13.25;9.60;;;;;;;;;;5095322;28;20024;-67
2022/02/26 14:32:04;;;;;;;12.25;8.55;;;;;;;;;;5094868;28;20074;-67
2022/02/26 14:34:31;;;;;;;16.38;9.98;;;;;;;;;;5094940;28;20031;-66